createdAt,value
2018-10-21T00:00:09.393Z,22.62
2018-10-21T00:01:09.424Z,22.68
2018-10-21T00:02:09.712Z,22.62
2018-10-21T00:03:09.959Z,22.66
2018-10-21T00:04:09.504Z,22.63
2018-10-21T00:05:09.777Z,22.6
2018-10-21T00:06:09.303Z,22.63
2018-10-21T00:07:09.584Z,22.65
2018-10-21T00:08:09.862Z,22.6
2018-10-21T00:09:09.421Z,22.68
2018-10-21T00:10:09.669Z,22.66
2018-10-21T00:11:09.691Z,22.62
2018-10-21T00:12:09.711Z,22.62
2018-10-21T00:13:09.998Z,22.57
2018-10-21T00:14:10.025Z,22.65
2018-10-21T00:15:09.982Z,22.63
2018-10-21T00:16:09.825Z,22.68
2018-10-21T00:17:10.103Z,22.62
2018-10-21T00:18:10.130Z,22.68
2018-10-21T00:19:10.156Z,22.6
2018-10-21T00:20:09.928Z,22.6
2018-10-21T00:21:09.741Z,22.65
2018-10-21T00:22:09.989Z,22.6
2018-10-21T00:23:10.023Z,22.65
2018-10-21T00:24:10.293Z,22.6
2018-10-21T00:25:10.317Z,22.6
2018-10-21T00:26:10.344Z,22.6
2018-10-21T00:27:10.231Z,22.6
2018-10-21T00:28:09.894Z,22.6
2018-10-21T00:29:10.176Z,22.65
2018-10-21T00:30:09.952Z,22.6
2018-10-21T00:31:10.481Z,22.59
2018-10-21T00:32:10.004Z,22.62
2018-10-21T00:33:10.923Z,22.69
2018-10-21T00:34:10.303Z,22.6
2018-10-21T00:35:10.346Z,22.57
2018-10-21T00:36:10.365Z,22.59
2018-10-21T00:37:10.389Z,22.6
2018-10-21T00:38:10.409Z,22.7
2018-10-21T00:39:10.916Z,22.65
2018-10-21T00:40:10.476Z,22.69
2018-10-21T00:41:10.750Z,22.66
2018-10-21T00:42:10.776Z,22.7
2018-10-21T00:43:10.298Z,22.62
2018-10-21T00:44:10.328Z,22.62
2018-10-21T00:45:11.271Z,22.65
2018-10-21T00:46:10.872Z,22.68
2018-10-21T00:47:10.663Z,22.65
2018-10-21T00:48:10.929Z,22.59
2018-10-21T00:49:10.964Z,22.63
2018-10-21T00:50:10.986Z,22.6
2018-10-21T00:51:10.914Z,22.69
2018-10-21T00:52:11.044Z,22.66
2018-10-21T00:53:10.815Z,22.69
2018-10-21T00:54:10.844Z,22.6
2018-10-21T00:55:11.126Z,22.65
2018-10-21T00:56:10.647Z,22.6
2018-10-21T00:57:11.093Z,22.63
2018-10-21T00:58:11.206Z,22.65
2018-10-21T00:59:10.729Z,22.65
2018-10-21T01:00:11.259Z,22.68
2018-10-21T01:01:11.026Z,22.59
2018-10-21T01:02:11.311Z,22.63
2018-10-21T01:03:10.927Z,22.68
2018-10-21T01:04:11.318Z,22.59
2018-10-21T01:05:11.387Z,22.66
2018-10-21T01:06:11.421Z,22.62
2018-10-21T01:07:11.446Z,22.65
2018-10-21T01:08:11.466Z,22.6
2018-10-21T01:09:11.477Z,22.62
2018-10-21T01:10:11.524Z,22.62
2018-10-21T01:11:11.297Z,22.62
2018-10-21T01:12:11.328Z,22.6
2018-10-21T01:13:11.362Z,22.66
2018-10-21T01:14:11.628Z,22.62
2018-10-21T01:15:11.622Z,22.62
2018-10-21T01:16:11.429Z,22.6
2018-10-21T01:17:11.715Z,22.59
2018-10-21T01:18:11.732Z,22.63
2018-10-21T01:19:11.764Z,22.6
2018-10-21T01:20:11.795Z,22.63
2018-10-21T01:21:11.673Z,22.57
2018-10-21T01:22:11.338Z,22.54
2018-10-21T01:23:11.617Z,22.65
2018-10-21T01:24:11.642Z,22.59
2018-10-21T01:25:11.672Z,22.55
2018-10-21T01:26:11.961Z,22.62
2018-10-21T01:27:12.230Z,22.54
2018-10-21T01:28:12.012Z,22.65
2018-10-21T01:29:11.531Z,22.62
2018-10-21T01:30:11.548Z,22.62
2018-10-21T01:31:12.087Z,22.63
2018-10-21T01:32:12.113Z,22.55
2018-10-21T01:33:11.997Z,22.55
2018-10-21T01:34:11.914Z,22.59
2018-10-21T01:35:12.204Z,22.53
2018-10-21T01:36:12.137Z,22.53
2018-10-21T01:37:12.213Z,22.57
2018-10-21T01:38:11.849Z,22.54
2018-10-21T01:39:12.564Z,22.59
2018-10-21T01:40:12.070Z,22.57
2018-10-21T01:41:12.102Z,22.54
2018-10-21T01:42:12.124Z,22.6
2018-10-21T01:43:12.158Z,22.62
2018-10-21T01:44:12.828Z,22.55
2018-10-21T01:45:12.435Z,22.57
2018-10-21T01:46:12.486Z,22.54
2018-10-21T01:47:12.256Z,22.51
2018-10-21T01:48:12.541Z,22.53
2018-10-21T01:49:12.309Z,22.55
2018-10-21T01:50:12.334Z,22.53
2018-10-21T01:51:12.931Z,22.55
2018-10-21T01:52:12.648Z,22.54
2018-10-21T01:53:12.417Z,22.57
2018-10-21T01:54:12.452Z,22.53
2018-10-21T01:55:12.727Z,22.54
2018-10-21T01:56:12.495Z,22.55
2018-10-21T01:57:12.708Z,22.55
2018-10-21T01:58:12.807Z,22.47
2018-10-21T01:59:12.577Z,22.47
2018-10-21T02:00:12.610Z,22.54
2018-10-21T02:01:12.888Z,22.62
2018-10-21T02:02:12.907Z,22.55
2018-10-21T02:03:12.502Z,22.51
2018-10-21T02:04:12.457Z,22.48
2018-10-21T02:05:12.487Z,22.54
2018-10-21T02:06:12.514Z,22.63
2018-10-21T02:07:12.542Z,22.54
2018-10-21T02:08:12.569Z,22.57
2018-10-21T02:09:13.425Z,22.47
2018-10-21T02:10:12.872Z,22.54
2018-10-21T02:11:12.900Z,22.53
2018-10-21T02:12:12.928Z,22.53
2018-10-21T02:13:13.259Z,22.51
2018-10-21T02:14:13.344Z,22.53
2018-10-21T02:15:13.198Z,22.54
2018-10-21T02:16:13.286Z,22.44
2018-10-21T02:17:13.068Z,22.51
2018-10-21T02:18:12.842Z,22.45
2018-10-21T02:19:13.114Z,22.53
2018-10-21T02:20:13.388Z,22.53
2018-10-21T02:21:13.003Z,22.53
2018-10-21T02:22:13.193Z,22.59
2018-10-21T02:23:13.463Z,22.5
2018-10-21T02:24:13.494Z,22.54
2018-10-21T02:25:13.523Z,22.54
2018-10-21T02:26:13.418Z,22.48
2018-10-21T02:27:13.804Z,22.47
2018-10-21T02:28:13.417Z,22.54
2018-10-21T02:29:13.628Z,22.53
2018-10-21T02:30:13.657Z,22.43
2018-10-21T02:31:13.435Z,22.48
2018-10-21T02:32:13.474Z,22.5
2018-10-21T02:33:14.250Z,22.47
2018-10-21T02:34:13.513Z,22.45
2018-10-21T02:35:13.542Z,22.51
2018-10-21T02:36:13.565Z,22.51
2018-10-21T02:37:13.337Z,22.45
2018-10-21T02:38:13.621Z,22.47
2018-10-21T02:39:13.734Z,22.45
2018-10-21T02:40:13.421Z,22.53
2018-10-21T02:41:13.953Z,22.47
2018-10-21T02:42:13.980Z,22.45
2018-10-21T02:43:13.757Z,22.5
2018-10-21T02:44:13.782Z,22.44
2018-10-21T02:45:14.397Z,22.44
2018-10-21T02:46:14.091Z,22.45
2018-10-21T02:47:13.620Z,22.43
2018-10-21T02:48:13.889Z,22.51
2018-10-21T02:49:14.168Z,22.47
2018-10-21T02:50:13.687Z,22.47
2018-10-21T02:51:14.302Z,22.47
2018-10-21T02:52:14.254Z,22.44
2018-10-21T02:53:14.025Z,22.5
2018-10-21T02:54:14.051Z,22.45
2018-10-21T02:55:14.077Z,22.36
2018-10-21T02:56:14.108Z,22.41
2018-10-21T02:57:14.715Z,22.35
2018-10-21T02:58:14.151Z,22.44
2018-10-21T02:59:13.925Z,22.36
2018-10-21T03:00:14.204Z,22.36
2018-10-21T03:01:14.232Z,22.41
2018-10-21T03:02:14.270Z,22.36
2018-10-21T03:03:14.540Z,22.36
2018-10-21T03:04:14.564Z,22.39
2018-10-21T03:05:14.335Z,22.41
2018-10-21T03:06:14.371Z,22.45
2018-10-21T03:07:14.138Z,22.43
2018-10-21T03:08:14.170Z,22.39
2018-10-21T03:09:14.581Z,22.38
2018-10-21T03:10:14.223Z,22.41
2018-10-21T03:11:14.246Z,22.47
2018-10-21T03:12:14.772Z,22.36
2018-10-21T03:13:14.552Z,22.45
2018-10-21T03:14:14.328Z,22.43
2018-10-21T03:15:15.160Z,22.39
2018-10-21T03:16:14.889Z,22.41
2018-10-21T03:17:14.915Z,22.33
2018-10-21T03:18:15.094Z,22.38
2018-10-21T03:19:15.013Z,22.38
2018-10-21T03:20:14.740Z,22.38
2018-10-21T03:21:15.444Z,22.36
2018-10-21T03:22:14.791Z,22.33
2018-10-21T03:23:15.075Z,22.38
2018-10-21T03:24:15.093Z,22.45
2018-10-21T03:25:15.124Z,22.43
2018-10-21T03:26:15.158Z,22.36
2018-10-21T03:27:15.293Z,22.45
2018-10-21T03:28:15.198Z,22.43
2018-10-21T03:29:15.242Z,22.45
2018-10-21T03:30:15.019Z,22.47
2018-10-21T03:31:15.289Z,22.45
2018-10-21T03:32:15.068Z,22.39
2018-10-21T03:33:15.315Z,22.41
2018-10-21T03:34:15.425Z,22.35
2018-10-21T03:35:15.396Z,22.44
2018-10-21T03:36:15.419Z,22.48
2018-10-21T03:37:15.191Z,22.43
2018-10-21T03:38:15.466Z,22.38
2018-10-21T03:39:15.246Z,22.45
2018-10-21T03:40:15.494Z,22.43
2018-10-21T03:41:15.301Z,22.36
2018-10-21T03:42:15.334Z,22.44
2018-10-21T03:43:15.353Z,22.35
2018-10-21T03:44:15.382Z,22.36
2018-10-21T03:45:21.420Z,22.41
2018-10-21T03:46:16.009Z,22.48
2018-10-21T03:47:15.199Z,22.47
2018-10-21T03:48:15.487Z,22.44
2018-10-21T03:49:15.516Z,22.43
2018-10-21T03:50:15.783Z,22.45
2018-10-21T03:51:15.808Z,22.48
2018-10-21T03:52:15.399Z,22.45
2018-10-21T03:53:15.618Z,22.45
2018-10-21T03:54:15.393Z,22.41
2018-10-21T03:55:15.415Z,22.45
2018-10-21T03:56:15.443Z,22.45
2018-10-21T03:57:15.471Z,22.48
2018-10-21T03:58:15.929Z,22.45
2018-10-21T03:59:15.773Z,22.47
2018-10-21T04:00:15.549Z,22.41
2018-10-21T04:01:15.573Z,22.43
2018-10-21T04:02:15.854Z,22.44
2018-10-21T04:03:15.882Z,22.41
2018-10-21T04:04:16.453Z,22.44
2018-10-21T04:05:15.935Z,22.48
2018-10-21T04:06:16.209Z,22.41
2018-10-21T04:07:15.740Z,22.39
2018-10-21T04:08:16.263Z,22.39
2018-10-21T04:09:16.300Z,22.45
2018-10-21T04:10:16.239Z,22.45
2018-10-21T04:11:16.100Z,22.45
2018-10-21T04:12:16.123Z,22.38
2018-10-21T04:13:16.149Z,22.38
2018-10-21T04:14:16.369Z,22.51
2018-10-21T04:15:16.449Z,22.38
2018-10-21T04:16:16.977Z,22.44
2018-10-21T04:17:16.000Z,22.38
2018-10-21T04:18:16.539Z,22.47
2018-10-21T04:19:16.310Z,22.41
2018-10-21T04:20:16.332Z,22.44
2018-10-21T04:21:16.608Z,22.44
2018-10-21T04:22:16.558Z,22.38
2018-10-21T04:23:16.664Z,22.53
2018-10-21T04:24:16.442Z,22.41
2018-10-21T04:25:16.473Z,22.43
2018-10-21T04:26:16.244Z,22.44
2018-10-21T04:27:16.271Z,22.45
2018-10-21T04:28:16.761Z,22.3
2018-10-21T04:29:16.577Z,22.47
2018-10-21T04:30:16.356Z,22.45
2018-10-21T04:31:16.378Z,22.43
2018-10-21T04:32:16.655Z,22.47
2018-10-21T04:33:16.681Z,22.43
2018-10-21T04:34:16.942Z,22.38
2018-10-21T04:35:16.769Z,22.41
2018-10-21T04:36:16.761Z,22.47
2018-10-21T04:37:16.795Z,22.43
2018-10-21T04:38:16.561Z,22.47
2018-10-21T04:39:16.849Z,22.47
2018-10-21T04:40:16.770Z,22.45
2018-10-21T04:41:16.901Z,22.53
2018-10-21T04:42:17.180Z,22.45
2018-10-21T04:43:16.951Z,22.44
2018-10-21T04:44:16.978Z,22.43
2018-10-21T04:45:17.009Z,22.51
2018-10-21T04:46:17.642Z,22.47
2018-10-21T04:47:17.368Z,22.54
2018-10-21T04:48:17.338Z,22.47
2018-10-21T04:49:17.107Z,22.48
2018-10-21T04:50:17.386Z,22.45
2018-10-21T04:51:16.914Z,22.41
2018-10-21T04:52:17.856Z,22.45
2018-10-21T04:53:16.970Z,22.45
2018-10-21T04:54:17.260Z,22.54
2018-10-21T04:55:17.274Z,22.53
2018-10-21T04:56:17.303Z,22.47
2018-10-21T04:57:17.322Z,22.48
2018-10-21T04:58:17.880Z,22.45
2018-10-21T04:59:17.124Z,22.5
2018-10-21T05:00:17.411Z,22.51
2018-10-21T05:01:17.688Z,22.47
2018-10-21T05:02:17.712Z,22.53
2018-10-21T05:03:17.239Z,22.5
2018-10-21T05:04:17.363Z,22.57
2018-10-21T05:05:17.794Z,22.54
2018-10-21T05:06:17.567Z,22.51
2018-10-21T05:07:17.900Z,22.57
2018-10-21T05:08:17.368Z,22.59
2018-10-21T05:09:17.903Z,22.55
2018-10-21T05:10:18.149Z,22.66
2018-10-21T05:11:17.951Z,22.63
2018-10-21T05:12:17.987Z,22.7
2018-10-21T05:13:18.005Z,22.6
2018-10-21T05:14:18.037Z,22.72
2018-10-21T05:15:18.344Z,22.76
2018-10-21T05:16:18.030Z,22.76
2018-10-21T05:17:17.866Z,22.75
2018-10-21T05:18:17.639Z,22.73
2018-10-21T05:19:17.967Z,22.7
2018-10-21T05:20:17.952Z,22.88
2018-10-21T05:21:18.225Z,22.85
2018-10-21T05:22:18.229Z,22.85
2018-10-21T05:23:17.775Z,22.83
2018-10-21T05:24:17.797Z,22.87
2018-10-21T05:25:18.333Z,22.9
2018-10-21T05:26:17.851Z,22.81
2018-10-21T05:27:18.385Z,22.85
2018-10-21T05:28:18.337Z,22.78
2018-10-21T05:29:18.434Z,22.9
2018-10-21T05:30:18.213Z,22.76
2018-10-21T05:31:18.242Z,22.73
2018-10-21T05:32:18.017Z,22.8
2018-10-21T05:33:18.554Z,22.72
2018-10-21T05:34:18.766Z,22.75
2018-10-21T05:35:18.347Z,22.78
2018-10-21T05:36:18.431Z,22.8
2018-10-21T05:37:18.649Z,22.81
2018-10-21T05:38:18.423Z,22.75
2018-10-21T05:39:18.713Z,22.76
2018-10-21T05:40:18.717Z,22.78
2018-10-21T05:41:18.519Z,22.76
2018-10-21T05:42:18.535Z,22.8
2018-10-21T05:43:18.318Z,22.72
2018-10-21T05:44:18.845Z,22.76
2018-10-21T05:45:18.618Z,22.73
2018-10-21T05:46:18.816Z,22.73
2018-10-21T05:47:19.187Z,22.76
2018-10-21T05:48:18.959Z,22.8
2018-10-21T05:49:18.474Z,22.72
2018-10-21T05:50:19.002Z,22.68
2018-10-21T05:51:18.783Z,22.76
2018-10-21T05:52:18.558Z,22.73
2018-10-21T05:53:18.832Z,22.8
2018-10-21T05:54:18.605Z,22.8
2018-10-21T05:55:19.135Z,22.8
2018-10-21T05:56:19.169Z,22.83
2018-10-21T05:57:18.935Z,22.8
2018-10-21T05:58:19.456Z,22.81
2018-10-21T05:59:18.994Z,22.75
2018-10-21T06:00:19.306Z,22.8
2018-10-21T06:01:18.797Z,22.76
2018-10-21T06:02:19.081Z,22.7
2018-10-21T06:03:19.106Z,22.76
2018-10-21T06:04:19.389Z,22.72
2018-10-21T06:05:19.159Z,22.81
2018-10-21T06:06:19.448Z,22.83
2018-10-21T06:07:19.212Z,22.75
2018-10-21T06:08:18.987Z,22.83
2018-10-21T06:09:19.518Z,22.85
2018-10-21T06:10:19.861Z,22.8
2018-10-21T06:11:19.570Z,22.85
2018-10-21T06:12:19.090Z,22.83
2018-10-21T06:13:19.371Z,22.83
2018-10-21T06:14:19.654Z,22.84
2018-10-21T06:15:19.428Z,22.8
2018-10-21T06:16:20.084Z,22.85
2018-10-21T06:17:19.229Z,22.78
2018-10-21T06:18:19.761Z,22.83
2018-10-21T06:19:19.790Z,22.84
2018-10-21T06:20:19.565Z,22.91
2018-10-21T06:21:19.844Z,22.91
2018-10-21T06:22:20.188Z,22.96
2018-10-21T06:23:19.889Z,22.9
2018-10-21T06:24:19.671Z,22.99
2018-10-21T06:25:19.696Z,22.88
2018-10-21T06:26:19.969Z,22.88
2018-10-21T06:27:19.753Z,22.91
2018-10-21T06:28:20.030Z,23.03
2018-10-21T06:29:20.062Z,22.94
2018-10-21T06:30:19.841Z,22.96
2018-10-21T06:31:20.183Z,23.03
2018-10-21T06:32:20.139Z,23.02
2018-10-21T06:33:20.507Z,23.02
2018-10-21T06:34:19.939Z,23
2018-10-21T06:35:19.723Z,23.05
2018-10-21T06:36:20.256Z,23.03
2018-10-21T06:37:19.778Z,23.03
2018-10-21T06:38:20.305Z,23.03
2018-10-21T06:39:20.312Z,23.09
2018-10-21T06:40:19.850Z,23
2018-10-21T06:41:20.379Z,23.1
2018-10-21T06:42:20.406Z,23.06
2018-10-21T06:43:20.183Z,23.1
2018-10-21T06:44:20.461Z,23.1
2018-10-21T06:45:21.122Z,23.21
2018-10-21T06:46:20.520Z,23.08
2018-10-21T06:47:20.292Z,23.06
2018-10-21T06:48:20.685Z,23.09
2018-10-21T06:49:20.596Z,23.03
2018-10-21T06:50:20.120Z,23.09
2018-10-21T06:51:20.403Z,23.06
2018-10-21T06:52:20.423Z,23
2018-10-21T06:53:20.703Z,22.91
2018-10-21T06:54:20.482Z,22.93
2018-10-21T06:55:20.511Z,22.96
2018-10-21T06:56:20.975Z,22.91
2018-10-21T06:57:21.677Z,22.88
2018-10-21T06:58:20.334Z,22.9
2018-10-21T06:59:20.362Z,22.85
2018-10-21T07:00:20.897Z,22.93
2018-10-21T07:01:20.665Z,22.93
2018-10-21T07:02:20.943Z,22.87
2018-10-21T07:03:20.972Z,22.96
2018-10-21T07:04:20.881Z,22.9
2018-10-21T07:05:20.784Z,22.94
2018-10-21T07:06:21.056Z,22.94
2018-10-21T07:07:21.082Z,22.99
2018-10-21T07:08:20.858Z,22.91
2018-10-21T07:09:20.630Z,22.91
2018-10-21T07:10:21.350Z,22.94
2018-10-21T07:11:21.192Z,22.94
2018-10-21T07:12:21.219Z,22.93
2018-10-21T07:13:20.991Z,22.98
2018-10-21T07:14:21.270Z,22.88
2018-10-21T07:15:21.210Z,22.84
2018-10-21T07:16:22.038Z,22.88
2018-10-21T07:17:21.347Z,22.88
2018-10-21T07:18:20.877Z,22.85
2018-10-21T07:19:21.411Z,22.88
2018-10-21T07:20:21.176Z,22.96
2018-10-21T07:21:21.228Z,22.91
2018-10-21T07:22:21.403Z,22.98
2018-10-21T07:23:21.513Z,22.93
2018-10-21T07:24:21.546Z,22.91
2018-10-21T07:25:21.572Z,22.91
2018-10-21T07:26:21.346Z,22.96
2018-10-21T07:27:21.368Z,22.94
2018-10-21T07:28:21.533Z,22.91
2018-10-21T07:29:21.425Z,22.94
2018-10-21T07:30:21.450Z,22.94
2018-10-21T07:31:21.478Z,22.96
2018-10-21T07:32:21.502Z,22.94
2018-10-21T07:33:21.786Z,22.91
2018-10-21T07:34:21.753Z,22.91
2018-10-21T07:35:21.587Z,22.94
2018-10-21T07:36:22.208Z,23
2018-10-21T07:37:21.889Z,23
2018-10-21T07:38:21.673Z,23.02
2018-10-21T07:39:21.951Z,22.93
2018-10-21T07:40:21.907Z,23.06
2018-10-21T07:41:22.001Z,23.06
2018-10-21T07:42:21.533Z,22.98
2018-10-21T07:43:21.800Z,23.02
2018-10-21T07:44:22.087Z,22.88
2018-10-21T07:45:21.610Z,22.9
2018-10-21T07:46:22.067Z,22.93
2018-10-21T07:47:22.162Z,22.88
2018-10-21T07:48:21.942Z,22.84
2018-10-21T07:49:22.150Z,22.84
2018-10-21T07:50:22.240Z,22.75
2018-10-21T07:51:22.269Z,22.78
2018-10-21T07:52:22.320Z,22.75
2018-10-21T07:53:22.071Z,22.76
2018-10-21T07:54:22.106Z,22.75
2018-10-21T07:55:22.406Z,22.6
2018-10-21T07:56:21.911Z,22.55
2018-10-21T07:57:22.431Z,22.59
2018-10-21T07:58:22.735Z,22.54
2018-10-21T07:59:22.487Z,22.44
2018-10-21T08:00:22.512Z,22.47
2018-10-21T08:01:22.722Z,22.44
2018-10-21T08:02:22.310Z,22.36
2018-10-21T08:03:22.587Z,22.36
2018-10-21T08:04:22.385Z,22.33
2018-10-21T08:05:22.396Z,22.29
2018-10-21T08:06:22.421Z,22.22
2018-10-21T08:07:22.698Z,22.14
2018-10-21T08:08:22.721Z,22.14
2018-10-21T08:09:22.506Z,22.08
2018-10-21T08:10:22.526Z,22.13
2018-10-21T08:11:22.301Z,22.04
2018-10-21T08:12:22.584Z,21.91
2018-10-21T08:13:22.852Z,22.04
2018-10-21T08:14:22.648Z,21.98
2018-10-21T08:15:22.680Z,21.88
2018-10-21T08:16:22.837Z,21.93
2018-10-21T08:17:22.713Z,21.88
2018-10-21T08:18:22.740Z,21.85
2018-10-21T08:19:22.769Z,21.76
2018-10-21T08:20:23.051Z,21.79
2018-10-21T08:21:23.498Z,21.77
2018-10-21T08:22:22.849Z,21.82
2018-10-21T08:23:22.877Z,21.72
2018-10-21T08:24:22.652Z,21.66
2018-10-21T08:25:22.935Z,21.69
2018-10-21T08:26:22.953Z,21.69
2018-10-21T08:27:23.848Z,21.72
2018-10-21T08:28:23.579Z,21.7
2018-10-21T08:29:23.036Z,21.76
2018-10-21T08:30:23.064Z,21.66
2018-10-21T08:31:23.345Z,21.62
2018-10-21T08:32:23.114Z,21.67
2018-10-21T08:33:22.890Z,21.69
2018-10-21T08:34:23.670Z,21.69
2018-10-21T08:35:22.946Z,21.64
2018-10-21T08:36:23.530Z,21.77
2018-10-21T08:37:22.993Z,21.67
2018-10-21T08:38:23.277Z,21.64
2018-10-21T08:39:23.053Z,21.76
2018-10-21T08:40:23.327Z,21.66
2018-10-21T08:41:23.609Z,21.66
2018-10-21T08:42:23.135Z,21.7
2018-10-21T08:43:23.655Z,21.67
2018-10-21T08:44:23.442Z,21.7
2018-10-21T08:45:23.709Z,21.7
2018-10-21T08:46:23.871Z,21.62
2018-10-21T08:47:23.811Z,21.7
2018-10-21T08:48:23.791Z,21.72
2018-10-21T08:49:23.908Z,21.62
2018-10-21T08:50:23.590Z,21.72
2018-10-21T08:51:23.619Z,21.76
2018-10-21T08:52:23.907Z,21.75
2018-10-21T08:53:23.422Z,21.75
2018-10-21T08:54:23.952Z,21.82
2018-10-21T08:55:23.724Z,21.77
2018-10-21T08:56:24.003Z,21.8
2018-10-21T08:57:23.524Z,21.91
2018-10-21T08:58:24.063Z,21.93
2018-10-21T08:59:24.076Z,21.91
2018-10-21T09:00:23.857Z,22
2018-10-21T09:01:24.135Z,21.99
2018-10-21T09:02:24.159Z,22.1
2018-10-21T09:03:24.191Z,22.08
2018-10-21T09:04:24.214Z,21.96
2018-10-21T09:05:24.237Z,22.13
2018-10-21T09:06:24.014Z,22.13
2018-10-21T09:07:24.047Z,22.06
2018-10-21T09:08:23.819Z,22.13
2018-10-21T09:09:24.090Z,22.1
2018-10-21T09:10:24.506Z,22.14
2018-10-21T09:11:24.144Z,22.18
2018-10-21T09:12:24.428Z,22.11
2018-10-21T09:13:24.200Z,22.2
2018-10-21T09:14:24.219Z,22.15
2018-10-21T09:15:24.324Z,22.17
2018-10-21T09:16:25.338Z,22.14
2018-10-21T09:17:24.307Z,22.17
2018-10-21T09:18:24.582Z,22.2
2018-10-21T09:19:24.112Z,22.17
2018-10-21T09:20:24.388Z,22.17
2018-10-21T09:21:24.667Z,22.2
2018-10-21T09:22:24.192Z,22.23
2018-10-21T09:23:24.713Z,22.18
2018-10-21T09:24:24.487Z,22.26
2018-10-21T09:25:25.023Z,22.29
2018-10-21T09:26:24.548Z,22.32
2018-10-21T09:27:24.319Z,22.29
2018-10-21T09:28:24.858Z,22.3
2018-10-21T09:29:24.622Z,22.28
2018-10-21T09:30:24.394Z,22.29
2018-10-21T09:31:24.691Z,22.25
2018-10-21T09:32:24.701Z,22.32
2018-10-21T09:33:24.930Z,22.28
2018-10-21T09:34:25.012Z,22.25
2018-10-21T09:35:24.783Z,22.25
2018-10-21T09:36:25.070Z,22.23
2018-10-21T09:37:25.090Z,22.25
2018-10-21T09:38:24.866Z,22.25
2018-10-21T09:39:25.137Z,22.26
2018-10-21T09:40:25.147Z,22.28
2018-10-21T09:41:24.944Z,22.25
2018-10-21T09:42:25.488Z,22.28
2018-10-21T09:43:24.751Z,22.22
2018-10-21T09:44:24.776Z,22.35
2018-10-21T09:45:24.793Z,22.28
2018-10-21T09:46:25.081Z,22.26
2018-10-21T09:47:25.355Z,22.36
2018-10-21T09:48:25.382Z,22.29
2018-10-21T09:49:25.160Z,22.36
2018-10-21T09:50:25.184Z,22.32
2018-10-21T09:51:25.217Z,22.29
2018-10-21T09:52:25.495Z,22.26
2018-10-21T09:53:25.269Z,22.35
2018-10-21T09:54:25.287Z,22.3
2018-10-21T09:55:25.317Z,22.25
2018-10-21T09:56:25.343Z,22.33
2018-10-21T09:57:25.363Z,22.3
2018-10-21T09:58:25.917Z,22.22
2018-10-21T09:59:25.422Z,22.32
2018-10-21T10:00:25.703Z,22.3
2018-10-21T10:01:25.733Z,22.29
2018-10-21T10:02:25.755Z,22.25
2018-10-21T10:03:25.525Z,22.22
2018-10-21T10:04:26.140Z,22.17
2018-10-21T10:05:26.400Z,22.15
2018-10-21T10:06:25.609Z,22.18
2018-10-21T10:07:25.392Z,22.22
2018-10-21T10:08:25.918Z,22.22
2018-10-21T10:09:25.944Z,22.25
2018-10-21T10:10:25.971Z,22.18
2018-10-21T10:11:25.492Z,22.2
2018-10-21T10:12:25.517Z,22.15
2018-10-21T10:13:25.807Z,22.17
2018-10-21T10:14:25.820Z,22.15
2018-10-21T10:15:25.598Z,22.22
2018-10-21T10:16:25.872Z,22.18
2018-10-21T10:17:26.158Z,22.22
2018-10-21T10:18:25.934Z,22.11
2018-10-21T10:19:26.202Z,22.15
2018-10-21T10:20:26.234Z,22
2018-10-21T10:21:26.005Z,22.18
2018-10-21T10:22:25.780Z,22.14
2018-10-21T10:23:26.328Z,22.18
2018-10-21T10:24:25.834Z,22.15
2018-10-21T10:25:25.858Z,22.17
2018-10-21T10:26:26.386Z,22.18
2018-10-21T10:27:26.165Z,22.15
2018-10-21T10:28:26.191Z,22.23
2018-10-21T10:29:25.970Z,22.15
2018-10-21T10:30:26.450Z,22.18
2018-10-21T10:31:26.273Z,22.23
2018-10-21T10:32:26.300Z,22.2
2018-10-21T10:33:26.318Z,22.22
2018-10-21T10:34:26.602Z,22.15
2018-10-21T10:35:26.643Z,22.22
2018-10-21T10:36:26.736Z,22.17
2018-10-21T10:37:26.685Z,22.26
2018-10-21T10:38:26.202Z,22.22
2018-10-21T10:39:26.483Z,22.17
2018-10-21T10:40:26.514Z,22.2
2018-10-21T10:41:26.784Z,22.14
2018-10-21T10:42:26.576Z,22.2
2018-10-21T10:43:26.604Z,22.23
2018-10-21T10:44:26.617Z,22.22
2018-10-21T10:45:26.396Z,22.2
2018-10-21T10:46:26.675Z,22.23
2018-10-21T10:47:26.692Z,22.2
2018-10-21T10:48:26.723Z,22.14
2018-10-21T10:49:26.492Z,22.18
2018-10-21T10:50:27.034Z,22.23
2018-10-21T10:51:26.802Z,22.13
2018-10-21T10:52:26.832Z,22.2
2018-10-21T10:53:26.857Z,22.29
2018-10-21T10:54:26.878Z,22.29
2018-10-21T10:55:27.169Z,22.25
2018-10-21T10:56:26.931Z,22.17
2018-10-21T10:57:26.967Z,22.33
2018-10-21T10:58:26.989Z,22.28
2018-10-21T10:59:26.810Z,22.25
2018-10-21T11:00:27.304Z,22.3
2018-10-21T11:01:27.071Z,22.29
2018-10-21T11:02:27.348Z,22.25
2018-10-21T11:03:27.163Z,22.23
2018-10-21T11:04:27.149Z,22.25
2018-10-21T11:05:27.173Z,22.23
2018-10-21T11:06:27.884Z,22.28
2018-10-21T11:07:27.475Z,22.23
2018-10-21T11:08:27.262Z,22.25
2018-10-21T11:09:27.282Z,22.25
2018-10-21T11:10:27.563Z,22.22
2018-10-21T11:11:27.291Z,22.25
2018-10-21T11:12:27.621Z,22.25
2018-10-21T11:13:27.386Z,22.23
2018-10-21T11:14:27.457Z,22.25
2018-10-21T11:15:27.443Z,22.26
2018-10-21T11:16:27.472Z,22.23
2018-10-21T11:17:27.494Z,22.32
2018-10-21T11:18:27.772Z,22.38
2018-10-21T11:19:27.554Z,22.23
2018-10-21T11:20:27.573Z,22.29
2018-10-21T11:21:27.606Z,22.3
2018-10-21T11:22:27.920Z,22.33
2018-10-21T11:23:27.917Z,22.39
2018-10-21T11:24:27.970Z,22.38
2018-10-21T11:25:27.707Z,22.35
2018-10-21T11:26:27.741Z,22.33
2018-10-21T11:27:27.760Z,22.35
2018-10-21T11:28:28.038Z,22.28
2018-10-21T11:29:27.814Z,22.36
2018-10-21T11:30:27.846Z,22.36
2018-10-21T11:31:27.874Z,22.39
2018-10-21T11:32:27.655Z,22.35
2018-10-21T11:33:28.177Z,22.47
2018-10-21T11:34:28.213Z,22.39
2018-10-21T11:35:27.971Z,22.36
2018-10-21T11:36:27.780Z,22.38
2018-10-21T11:37:28.638Z,22.41
2018-10-21T11:38:28.303Z,22.39
2018-10-21T11:39:27.833Z,22.33
2018-10-21T11:40:27.858Z,22.45
2018-10-21T11:41:28.392Z,22.45
2018-10-21T11:42:28.156Z,22.43
2018-10-21T11:43:28.439Z,22.45
2018-10-21T11:44:28.217Z,22.36
2018-10-21T11:45:28.292Z,22.41
2018-10-21T11:46:28.866Z,22.41
2018-10-21T11:47:28.557Z,22.47
2018-10-21T11:48:28.356Z,22.43
2018-10-21T11:49:28.610Z,22.43
2018-10-21T11:50:28.376Z,22.48
2018-10-21T11:51:28.402Z,22.48
2018-10-21T11:52:28.201Z,22.43
2018-10-21T11:53:28.706Z,22.48
2018-10-21T11:54:28.730Z,22.48
2018-10-21T11:55:28.259Z,22.48
2018-10-21T11:56:28.786Z,22.45
2018-10-21T11:57:28.317Z,22.48
2018-10-21T11:58:28.841Z,22.47
2018-10-21T11:59:28.615Z,22.43
2018-10-21T12:00:28.392Z,22.43
2018-10-21T12:01:28.415Z,22.47
2018-10-21T12:02:28.955Z,22.45
2018-10-21T12:03:28.971Z,22.45
2018-10-21T12:04:29.004Z,22.54
2018-10-21T12:05:28.526Z,22.51
2018-10-21T12:06:29.064Z,22.45
2018-10-21T12:07:29.082Z,22.47
2018-10-21T12:08:29.105Z,22.47
2018-10-21T12:09:28.879Z,22.45
2018-10-21T12:10:28.654Z,22.5
2018-10-21T12:11:28.940Z,22.47
2018-10-21T12:12:28.958Z,22.51
2018-10-21T12:13:28.993Z,22.53
2018-10-21T12:14:29.017Z,22.53
2018-10-21T12:15:29.292Z,22.53
2018-10-21T12:16:29.070Z,22.57
2018-10-21T12:17:29.098Z,22.59
2018-10-21T12:18:29.376Z,22.57
2018-10-21T12:19:29.194Z,22.53
2018-10-21T12:20:29.426Z,22.54
2018-10-21T12:21:29.201Z,22.54
2018-10-21T12:22:29.002Z,22.55
2018-10-21T12:23:29.578Z,22.62
2018-10-21T12:24:29.539Z,22.59
2018-10-21T12:25:29.072Z,22.65
2018-10-21T12:26:29.329Z,22.57
2018-10-21T12:27:29.621Z,22.57
2018-10-21T12:28:29.393Z,22.66
2018-10-21T12:29:29.418Z,22.66
2018-10-21T12:30:29.187Z,22.65
2018-10-21T12:31:29.727Z,22.59
2018-10-21T12:32:29.498Z,22.63
2018-10-21T12:33:29.525Z,22.55
2018-10-21T12:34:29.806Z,22.6
2018-10-21T12:35:29.824Z,22.59
2018-10-21T12:36:29.602Z,22.65
2018-10-21T12:37:29.876Z,22.68
2018-10-21T12:38:29.652Z,22.66
2018-10-21T12:39:29.680Z,22.66
2018-10-21T12:40:29.711Z,22.66
2018-10-21T12:41:29.738Z,22.63
2018-10-21T12:42:29.768Z,22.54
2018-10-21T12:43:29.791Z,22.6
2018-10-21T12:44:29.821Z,22.66
2018-10-21T12:45:29.993Z,22.62
2018-10-21T12:46:29.620Z,22.57
2018-10-21T12:47:30.150Z,22.59
2018-10-21T12:48:29.921Z,22.57
2018-10-21T12:49:29.950Z,22.59
2018-10-21T12:50:29.981Z,22.59
2018-10-21T12:51:30.003Z,22.51
2018-10-21T12:52:30.284Z,22.55
2018-10-21T12:53:30.062Z,22.48
2018-10-21T12:54:30.172Z,22.54
2018-10-21T12:55:30.186Z,22.62
2018-10-21T12:56:30.388Z,22.5